sensor_id;sensor_type;location;lat;lon;timestamp;pressure;altitude;pressure_sealevel;temperature;humidity
62712;BME280;48772;55.586;37.730;2022-08-21T00:00:15;100147.44;;;17.49;43.92
62712;BME280;48772;55.586;37.730;2022-08-21T00:03:05;100148.59;;;17.46;44.15
62712;BME280;48772;55.586;37.730;2022-08-21T00:05:36;100119.59;;;17.31;43.92
62712;BME280;48772;55.586;37.730;2022-08-21T00:08:02;100140.97;;;17.42;43.79
62712;BME280;48772;55.586;37.730;2022-08-21T00:10:28;100128.75;;;17.38;43.86
62712;BME280;48772;55.586;37.730;2022-08-21T00:12:54;100136.84;;;17.38;43.99
62712;BME280;48772;55.586;37.730;2022-08-21T00:15:26;100140.97;;;17.42;43.84
62712;BME280;48772;55.586;37.730;2022-08-21T00:17:53;100102.78;;;17.19;44.14
62712;BME280;48772;55.586;37.730;2022-08-21T00:20:19;100128.28;;;17.25;44.39
62712;BME280;48772;55.586;37.730;2022-08-21T00:22:45;100139.47;;;17.30;44.14
62712;BME280;48772;55.586;37.730;2022-08-21T00:25:13;100146.84;;;17.28;44.54
62712;BME280;48772;55.586;37.730;2022-08-21T00:27:39;100124.28;;;17.11;44.42
62712;BME280;48772;55.586;37.730;2022-08-21T00:30:10;100144.59;;;17.23;44.51
62712;BME280;48772;55.586;37.730;2022-08-21T00:32:38;100122.59;;;17.10;44.62
62712;BME280;48772;55.586;37.730;2022-08-21T00:35:11;100129.44;;;17.05;44.80
62712;BME280;48772;55.586;37.730;2022-08-21T00:37:39;100126.19;;;17.01;44.96
62712;BME280;48772;55.586;37.730;2022-08-21T00:40:08;100144.44;;;17.07;44.75
62712;BME280;48772;55.586;37.730;2022-08-21T00:42:36;100123.13;;;16.96;44.80
62712;BME280;48772;55.586;37.730;2022-08-21T00:45:03;100139.84;;;17.00;45.07
62712;BME280;48772;55.586;37.730;2022-08-21T00:47:30;100124.19;;;16.86;45.11
62712;BME280;48772;55.586;37.730;2022-08-21T00:49:56;100136.88;;;16.93;45.18
62712;BME280;48772;55.586;37.730;2022-08-21T00:52:25;100132.50;;;16.92;45.25
62712;BME280;48772;55.586;37.730;2022-08-21T00:54:54;100125.34;;;16.83;45.30
62712;BME280;48772;55.586;37.730;2022-08-21T00:57:26;100119.97;;;16.74;45.50
62712;BME280;48772;55.586;37.730;2022-08-21T00:59:56;100139.53;;;16.76;45.53
62712;BME280;48772;55.586;37.730;2022-08-21T01:02:23;100143.41;;;16.73;45.78
62712;BME280;48772;55.586;37.730;2022-08-21T01:04:49;100123.19;;;16.60;45.60
62712;BME280;48772;55.586;37.730;2022-08-21T01:07:16;100132.69;;;16.64;45.64
62712;BME280;48772;55.586;37.730;2022-08-21T01:09:43;100126.88;;;16.59;45.76
62712;BME280;48772;55.586;37.730;2022-08-21T01:12:09;100140.75;;;16.64;45.70
62712;BME280;48772;55.586;37.730;2022-08-21T01:14:37;100131.44;;;16.58;46.28
62712;BME280;48772;55.586;37.730;2022-08-21T01:17:04;100146.44;;;16.61;46.26
62712;BME280;48772;55.586;37.730;2022-08-21T01:19:31;100141.03;;;16.61;45.96
62712;BME280;48772;55.586;37.730;2022-08-21T01:21:57;100115.31;;;16.49;46.09
62712;BME280;48772;55.586;37.730;2022-08-21T01:24:25;100131.16;;;16.52;46.31
62712;BME280;48772;55.586;37.730;2022-08-21T01:26:51;100141.25;;;16.50;46.52
62712;BME280;48772;55.586;37.730;2022-08-21T01:32:18;100131.06;;;16.43;46.49
62712;BME280;48772;55.586;37.730;2022-08-21T01:34:45;100118.19;;;16.37;46.60
62712;BME280;48772;55.586;37.730;2022-08-21T01:37:12;100120.44;;;16.32;46.66
62712;BME280;48772;55.586;37.730;2022-08-21T01:39:39;100119.03;;;16.28;46.96
62712;BME280;48772;55.586;37.730;2022-08-21T01:42:05;100110.88;;;16.20;47.07
62712;BME280;48772;55.586;37.730;2022-08-21T01:44:31;100121.22;;;16.15;47.09
62712;BME280;48772;55.586;37.730;2022-08-21T01:46:59;100091.63;;;16.06;47.53
62712;BME280;48772;55.586;37.730;2022-08-21T01:49:26;100122.78;;;16.18;47.46
62712;BME280;48772;55.586;37.730;2022-08-21T01:51:53;100139.75;;;16.18;47.35
62712;BME280;48772;55.586;37.730;2022-08-21T01:54:19;100132.69;;;16.17;47.40
62712;BME280;48772;55.586;37.730;2022-08-21T01:56:47;100138.34;;;16.14;47.45
62712;BME280;48772;55.586;37.730;2022-08-21T01:59:15;100141.91;;;16.15;47.45
62712;BME280;48772;55.586;37.730;2022-08-21T02:01:41;100137.94;;;16.09;47.29
62712;BME280;48772;55.586;37.730;2022-08-21T02:04:08;100136.38;;;16.16;47.10
62712;BME280;48772;55.586;37.730;2022-08-21T02:06:35;100133.88;;;16.05;47.22
62712;BME280;48772;55.586;37.730;2022-08-21T02:09:03;100132.72;;;16.08;47.11
62712;BME280;48772;55.586;37.730;2022-08-21T02:11:29;100128.19;;;16.08;47.56
62712;BME280;48772;55.586;37.730;2022-08-21T02:13:54;100141.78;;;16.07;47.62
62712;BME280;48772;55.586;37.730;2022-08-21T02:16:20;100140.38;;;16.03;47.86
62712;BME280;48772;55.586;37.730;2022-08-21T02:18:46;100114.63;;;15.91;48.07
62712;BME280;48772;55.586;37.730;2022-08-21T02:21:12;100081.75;;;15.60;48.34
62712;BME280;48772;55.586;37.730;2022-08-21T02:23:38;100102.78;;;15.74;47.94
62712;BME280;48772;55.586;37.730;2022-08-21T02:26:06;100151.16;;;15.93;48.39
62712;BME280;48772;55.586;37.730;2022-08-21T02:28:33;100133.94;;;15.77;48.34
62712;BME280;48772;55.586;37.730;2022-08-21T02:30:59;100144.97;;;15.83;48.71
62712;BME280;48772;55.586;37.730;2022-08-21T02:33:27;100134.34;;;15.72;48.39
62712;BME280;48772;55.586;37.730;2022-08-21T02:35:53;100143.25;;;15.82;48.20
62712;BME280;48772;55.586;37.730;2022-08-21T02:38:24;100127.97;;;15.73;48.53
62712;BME280;48772;55.586;37.730;2022-08-21T02:40:52;100150.59;;;15.90;48.39
62712;BME280;48772;55.586;37.730;2022-08-21T02:43:20;100117.22;;;15.73;48.34
62712;BME280;48772;55.586;37.730;2022-08-21T02:45:48;100121.59;;;15.74;48.21
62712;BME280;48772;55.586;37.730;2022-08-21T02:48:21;100150.84;;;15.96;48.10
62712;BME280;48772;55.586;37.730;2022-08-21T02:50:52;100153.88;;;15.93;48.18
62712;BME280;48772;55.586;37.730;2022-08-21T02:53:19;100155.66;;;16.02;47.90
62712;BME280;48772;55.586;37.730;2022-08-21T02:55:47;100151.97;;;16.03;47.52
62712;BME280;48772;55.586;37.730;2022-08-21T02:58:15;100139.78;;;16.09;47.38
62712;BME280;48772;55.586;37.730;2022-08-21T03:00:42;100141.06;;;16.05;47.35
62712;BME280;48772;55.586;37.730;2022-08-21T03:03:09;100140.94;;;16.06;47.25
62712;BME280;48772;55.586;37.730;2022-08-21T03:05:36;100157.91;;;16.16;47.51
62712;BME280;48772;55.586;37.730;2022-08-21T03:08:07;100135.94;;;16.11;46.83
62712;BME280;48772;55.586;37.730;2022-08-21T03:10:38;100147.97;;;16.17;46.89
62712;BME280;48772;55.586;37.730;2022-08-21T03:13:05;100150.66;;;16.26;47.02
62712;BME280;48772;55.586;37.730;2022-08-21T03:15:31;100146.53;;;16.22;47.17
62712;BME280;48772;55.586;37.730;2022-08-21T03:17:57;100147.66;;;16.29;46.63
62712;BME280;48772;55.586;37.730;2022-08-21T03:20:26;100154.75;;;16.30;46.73
62712;BME280;48772;55.586;37.730;2022-08-21T03:22:53;100144.28;;;16.27;46.58
62712;BME280;48772;55.586;37.730;2022-08-21T03:25:21;100163.50;;;16.32;46.62
62712;BME280;48772;55.586;37.730;2022-08-21T03:27:48;100158.56;;;16.37;46.70
62712;BME280;48772;55.586;37.730;2022-08-21T03:30:20;100154.13;;;16.36;46.77
62712;BME280;48772;55.586;37.730;2022-08-21T03:32:47;100161.94;;;16.39;46.85
62712;BME280;48772;55.586;37.730;2022-08-21T03:35:13;100170.28;;;16.46;46.58
62712;BME280;48772;55.586;37.730;2022-08-21T03:37:39;100160.38;;;16.47;46.76
62712;BME280;48772;55.586;37.730;2022-08-21T03:40:07;100168.84;;;16.52;46.75
62712;BME280;48772;55.586;37.730;2022-08-21T03:42:33;100167.84;;;16.62;46.30
62712;BME280;48772;55.586;37.730;2022-08-21T03:45:00;100165.22;;;16.70;46.04
62712;BME280;48772;55.586;37.730;2022-08-21T03:47:26;100174.72;;;16.74;46.16
62712;BME280;48772;55.586;37.730;2022-08-21T03:49:52;100171.88;;;16.76;46.15
62712;BME280;48772;55.586;37.730;2022-08-21T03:52:19;100151.38;;;16.65;45.66
62712;BME280;48772;55.586;37.730;2022-08-21T03:54:45;100169.88;;;16.78;46.31
62712;BME280;48772;55.586;37.730;2022-08-21T03:57:11;100160.72;;;16.71;45.85
62712;BME280;48772;55.586;37.730;2022-08-21T03:59:37;100149.28;;;16.59;46.79
62712;BME280;48772;55.586;37.730;2022-08-21T04:02:06;100135.09;;;16.57;46.59
62712;BME280;48772;55.586;37.730;2022-08-21T04:04:33;100146.13;;;16.64;46.85
62712;BME280;48772;55.586;37.730;2022-08-21T04:06:59;100159.66;;;16.81;46.67
62712;BME280;48772;55.586;37.730;2022-08-21T04:09:26;100152.56;;;16.80;46.85
62712;BME280;48772;55.586;37.730;2022-08-21T04:11:51;100140.94;;;16.80;46.95
62712;BME280;48772;55.586;37.730;2022-08-21T04:14:18;100160.31;;;16.93;46.58
62712;BME280;48772;55.586;37.730;2022-08-21T04:16:44;100148.00;;;16.81;46.42
62712;BME280;48772;55.586;37.730;2022-08-21T04:19:12;100167.09;;;16.97;46.46
62712;BME280;48772;55.586;37.730;2022-08-21T04:21:39;100168.25;;;16.94;46.63
62712;BME280;48772;55.586;37.730;2022-08-21T04:24:06;100163.91;;;17.01;46.62
62712;BME280;48772;55.586;37.730;2022-08-21T04:26:36;100164.97;;;16.91;46.09
62712;BME280;48772;55.586;37.730;2022-08-21T04:29:03;100167.16;;;17.05;46.61
62712;BME280;48772;55.586;37.730;2022-08-21T04:31:32;100159.16;;;16.95;46.53
62712;BME280;48772;55.586;37.730;2022-08-21T04:33:59;100166.78;;;17.00;46.54
62712;BME280;48772;55.586;37.730;2022-08-21T04:36:25;100165.13;;;17.16;46.92
62712;BME280;48772;55.586;37.730;2022-08-21T04:38:51;100174.44;;;17.22;46.56
62712;BME280;48772;55.586;37.730;2022-08-21T04:41:17;100165.06;;;17.26;46.71
62712;BME280;48772;55.586;37.730;2022-08-21T04:43:43;100167.34;;;17.21;45.91
62712;BME280;48772;55.586;37.730;2022-08-21T04:46:09;100170.06;;;17.38;46.12
62712;BME280;48772;55.586;37.730;2022-08-21T04:48:34;100143.47;;;17.26;45.99
62712;BME280;48772;55.586;37.730;2022-08-21T04:51:15;100152.47;;;17.44;45.89
62712;BME280;48772;55.586;37.730;2022-08-21T04:53:46;100181.31;;;17.69;45.93
62712;BME280;48772;55.586;37.730;2022-08-21T04:56:20;100155.91;;;17.71;45.16
62712;BME280;48772;55.586;37.730;2022-08-21T04:58:47;100164.44;;;17.84;45.54
62712;BME280;48772;55.586;37.730;2022-08-21T05:01:21;100172.13;;;17.97;44.58
62712;BME280;48772;55.586;37.730;2022-08-21T05:03:49;100168.00;;;18.10;44.30
62712;BME280;48772;55.586;37.730;2022-08-21T05:06:16;100170.66;;;18.28;44.14
62712;BME280;48772;55.586;37.730;2022-08-21T05:08:44;100175.34;;;18.43;43.69
62712;BME280;48772;55.586;37.730;2022-08-21T05:11:11;100170.38;;;18.64;43.07
62712;BME280;48772;55.586;37.730;2022-08-21T05:13:37;100172.28;;;18.72;42.79
62712;BME280;48772;55.586;37.730;2022-08-21T05:16:03;100155.13;;;18.89;42.04
62712;BME280;48772;55.586;37.730;2022-08-21T05:18:29;100151.97;;;19.01;41.79
62712;BME280;48772;55.586;37.730;2022-08-21T05:20:54;100167.28;;;19.34;40.90
62712;BME280;48772;55.586;37.730;2022-08-21T05:23:22;100163.75;;;19.34;40.31
62712;BME280;48772;55.586;37.730;2022-08-21T05:25:47;100169.84;;;19.44;40.41
62712;BME280;48772;55.586;37.730;2022-08-21T05:28:13;100130.44;;;19.49;39.71
62712;BME280;48772;55.586;37.730;2022-08-21T05:30:42;100145.34;;;19.70;39.74
62712;BME280;48772;55.586;37.730;2022-08-21T05:33:08;100166.16;;;19.93;39.47
62712;BME280;48772;55.586;37.730;2022-08-21T05:35:34;100139.44;;;19.82;39.08
62712;BME280;48772;55.586;37.730;2022-08-21T05:38:01;100140.25;;;20.15;38.71
62712;BME280;48772;55.586;37.730;2022-08-21T05:40:27;100161.06;;;20.30;38.51
62712;BME280;48772;55.586;37.730;2022-08-21T05:42:54;100170.16;;;20.45;38.60
62712;BME280;48772;55.586;37.730;2022-08-21T05:45:27;100148.13;;;20.56;38.55
62712;BME280;48772;55.586;37.730;2022-08-21T05:47:53;100150.53;;;20.51;37.54
62712;BME280;48772;55.586;37.730;2022-08-21T05:50:19;100158.41;;;20.69;36.85
62712;BME280;48772;55.586;37.730;2022-08-21T05:52:45;100157.22;;;20.71;36.45
62712;BME280;48772;55.586;37.730;2022-08-21T05:55:12;100154.81;;;20.84;36.59
62712;BME280;48772;55.586;37.730;2022-08-21T05:57:37;100157.53;;;21.15;36.08
62712;BME280;48772;55.586;37.730;2022-08-21T06:00:07;100148.63;;;21.06;35.05
62712;BME280;48772;55.586;37.730;2022-08-21T06:02:39;100143.78;;;21.16;35.21
62712;BME280;48772;55.586;37.730;2022-08-21T06:05:05;100151.78;;;21.40;35.92
62712;BME280;48772;55.586;37.730;2022-08-21T06:07:31;100146.31;;;21.48;35.05
62712;BME280;48772;55.586;37.730;2022-08-21T06:09:57;100145.47;;;21.70;33.96
62712;BME280;48772;55.586;37.730;2022-08-21T06:12:23;100147.84;;;21.73;33.60
62712;BME280;48772;55.586;37.730;2022-08-21T06:14:49;100119.47;;;21.53;33.58
62712;BME280;48772;55.586;37.730;2022-08-21T06:17:18;100130.19;;;21.92;33.93
62712;BME280;48772;55.586;37.730;2022-08-21T06:19:44;100123.56;;;21.94;33.48
62712;BME280;48772;55.586;37.730;2022-08-21T06:22:09;100133.53;;;22.16;33.07
62712;BME280;48772;55.586;37.730;2022-08-21T06:24:35;100118.56;;;22.20;33.34
62712;BME280;48772;55.586;37.730;2022-08-21T06:27:05;100136.06;;;22.47;32.87
62712;BME280;48772;55.586;37.730;2022-08-21T06:29:33;100134.75;;;22.43;32.51
62712;BME280;48772;55.586;37.730;2022-08-21T06:31:59;100133.34;;;22.47;32.25
62712;BME280;48772;55.586;37.730;2022-08-21T06:34:25;100139.00;;;22.45;32.04
62712;BME280;48772;55.586;37.730;2022-08-21T06:36:51;100145.38;;;22.52;31.83
62712;BME280;48772;55.586;37.730;2022-08-21T06:39:17;100135.25;;;22.46;32.27
62712;BME280;48772;55.586;37.730;2022-08-21T06:41:43;100137.16;;;22.75;31.60
62712;BME280;48772;55.586;37.730;2022-08-21T06:44:08;100142.00;;;22.94;31.80
62712;BME280;48772;55.586;37.730;2022-08-21T06:46:34;100127.94;;;22.91;30.86
62712;BME280;48772;55.586;37.730;2022-08-21T06:49:01;100137.28;;;23.03;30.76
62712;BME280;48772;55.586;37.730;2022-08-21T06:51:27;100139.81;;;23.19;31.19
62712;BME280;48772;55.586;37.730;2022-08-21T06:53:53;100134.03;;;23.43;30.59
62712;BME280;48772;55.586;37.730;2022-08-21T06:56:19;100133.63;;;23.46;30.47
62712;BME280;48772;55.586;37.730;2022-08-21T06:58:45;100112.72;;;23.46;30.14
62712;BME280;48772;55.586;37.730;2022-08-21T07:01:11;100137.28;;;23.74;30.31
62712;BME280;48772;55.586;37.730;2022-08-21T07:03:40;100110.13;;;23.87;29.50
62712;BME280;48772;55.586;37.730;2022-08-21T07:06:07;100122.72;;;24.09;29.95
62712;BME280;48772;55.586;37.730;2022-08-21T07:08:34;100108.13;;;24.16;29.74
62712;BME280;48772;55.586;37.730;2022-08-21T07:11:02;100122.34;;;24.46;29.47
62712;BME280;48772;55.586;37.730;2022-08-21T07:13:29;100123.06;;;24.27;28.17
62712;BME280;48772;55.586;37.730;2022-08-21T07:15:55;100114.44;;;24.51;28.46
62712;BME280;48772;55.586;37.730;2022-08-21T07:18:21;100113.91;;;24.68;28.37
62712;BME280;48772;55.586;37.730;2022-08-21T07:20:47;100101.41;;;24.87;28.58
62712;BME280;48772;55.586;37.730;2022-08-21T07:23:26;100108.22;;;25.10;28.13
62712;BME280;48772;55.586;37.730;2022-08-21T07:25:53;100106.63;;;24.82;27.78
62712;BME280;48772;55.586;37.730;2022-08-21T07:28:19;100092.59;;;24.85;28.05
62712;BME280;48772;55.586;37.730;2022-08-21T07:30:50;100101.25;;;25.01;27.76
62712;BME280;48772;55.586;37.730;2022-08-21T07:33:17;100108.06;;;25.25;27.37
62712;BME280;48772;55.586;37.730;2022-08-21T07:35:43;100090.88;;;25.31;27.39
62712;BME280;48772;55.586;37.730;2022-08-21T07:38:08;100093.84;;;25.49;26.72
62712;BME280;48772;55.586;37.730;2022-08-21T07:40:34;100099.13;;;25.70;26.47
62712;BME280;48772;55.586;37.730;2022-08-21T07:43:00;100099.41;;;26.01;26.30
62712;BME280;48772;55.586;37.730;2022-08-21T07:45:26;100080.44;;;25.87;26.18
62712;BME280;48772;55.586;37.730;2022-08-21T07:47:52;100097.50;;;26.08;25.71
62712;BME280;48772;55.586;37.730;2022-08-21T07:50:18;100096.84;;;26.19;25.31
62712;BME280;48772;55.586;37.730;2022-08-21T07:52:45;100088.22;;;26.09;25.11
62712;BME280;48772;55.586;37.730;2022-08-21T07:55:13;100078.75;;;25.92;25.20
62712;BME280;48772;55.586;37.730;2022-08-21T07:57:39;100082.94;;;25.95;24.88
62712;BME280;48772;55.586;37.730;2022-08-21T08:00:12;100084.22;;;26.25;25.14
62712;BME280;48772;55.586;37.730;2022-08-21T08:02:39;100082.03;;;26.59;25.16
62712;BME280;48772;55.586;37.730;2022-08-21T08:05:09;100083.59;;;26.23;24.21
62712;BME280;48772;55.586;37.730;2022-08-21T08:07:36;100074.91;;;26.45;24.25
62712;BME280;48772;55.586;37.730;2022-08-21T08:10:04;100069.22;;;26.60;24.66
62712;BME280;48772;55.586;37.730;2022-08-21T08:12:33;100069.22;;;27.04;24.45
62712;BME280;48772;55.586;37.730;2022-08-21T08:15:01;100074.28;;;27.07;23.71
62712;BME280;48772;55.586;37.730;2022-08-21T08:17:27;100077.84;;;27.07;23.51
62712;BME280;48772;55.586;37.730;2022-08-21T08:19:54;100054.06;;;26.51;23.13
62712;BME280;48772;55.586;37.730;2022-08-21T08:22:21;100071.88;;;26.79;22.62
62712;BME280;48772;55.586;37.730;2022-08-21T08:24:50;100050.84;;;26.73;22.36
62712;BME280;48772;55.586;37.730;2022-08-21T08:27:16;100067.47;;;26.72;22.99
62712;BME280;48772;55.586;37.730;2022-08-21T08:29:42;100063.50;;;26.48;23.35
62712;BME280;48772;55.586;37.730;2022-08-21T08:32:08;100060.00;;;26.41;23.90
62712;BME280;48772;55.586;37.730;2022-08-21T08:34:35;100042.28;;;26.63;23.18
62712;BME280;48772;55.586;37.730;2022-08-21T08:37:02;100052.84;;;26.97;22.76
62712;BME280;48772;55.586;37.730;2022-08-21T08:39:29;100052.50;;;27.25;22.22
62712;BME280;48772;55.586;37.730;2022-08-21T08:42:26;100050.13;;;27.35;21.93
62712;BME280;48772;55.586;37.730;2022-08-21T08:45:07;100052.09;;;27.52;21.58
62712;BME280;48772;55.586;37.730;2022-08-21T08:47:45;100065.25;;;27.68;21.11
62712;BME280;48772;55.586;37.730;2022-08-21T08:50:28;100036.59;;;27.95;20.84
62712;BME280;48772;55.586;37.730;2022-08-21T08:53:14;100024.00;;;27.88;21.05
62712;BME280;48772;55.586;37.730;2022-08-21T08:55:43;100039.09;;;28.15;21.33
62712;BME280;48772;55.586;37.730;2022-08-21T08:58:14;100038.47;;;27.70;21.85
62712;BME280;48772;55.586;37.730;2022-08-21T09:00:44;100036.31;;;27.17;21.77
62712;BME280;48772;55.586;37.730;2022-08-21T09:03:12;100030.03;;;27.10;22.28
62712;BME280;48772;55.586;37.730;2022-08-21T09:11:32;100036.09;;;27.12;22.00
62712;BME280;48772;55.586;37.730;2022-08-21T09:16:59;100025.72;;;26.89;21.68
62712;BME280;48772;55.586;37.730;2022-08-21T09:20:18;100052.75;;;27.10;21.55
62712;BME280;48772;55.586;37.730;2022-08-21T09:25:03;100037.13;;;28.22;20.06
62712;BME280;48772;55.586;37.730;2022-08-21T09:27:33;100044.88;;;28.50;20.51
62712;BME280;48772;55.586;37.730;2022-08-21T09:30:00;100056.56;;;28.45;20.00
62712;BME280;48772;55.586;37.730;2022-08-21T09:32:32;100041.78;;;28.03;20.00
62712;BME280;48772;55.586;37.730;2022-08-21T09:35:10;100051.53;;;27.68;20.03
62712;BME280;48772;55.586;37.730;2022-08-21T09:40:37;100056.06;;;27.56;20.71
62712;BME280;48772;55.586;37.730;2022-08-21T09:43:21;100043.78;;;27.34;20.53
62712;BME280;48772;55.586;37.730;2022-08-21T09:46:04;100047.72;;;27.45;20.56
62712;BME280;48772;55.586;37.730;2022-08-21T09:48:39;100045.25;;;27.37;20.85
62712;BME280;48772;55.586;37.730;2022-08-21T09:51:08;100036.44;;;27.35;21.14
62712;BME280;48772;55.586;37.730;2022-08-21T09:53:41;100028.38;;;27.02;21.58
62712;BME280;48772;55.586;37.730;2022-08-21T09:56:26;100043.13;;;27.01;21.50
62712;BME280;48772;55.586;37.730;2022-08-21T09:59:24;100043.66;;;26.79;22.34
62712;BME280;48772;55.586;37.730;2022-08-21T10:01:51;100034.19;;;26.75;22.52
62712;BME280;48772;55.586;37.730;2022-08-21T10:04:43;100049.81;;;26.68;22.85
62712;BME280;48772;55.586;37.730;2022-08-21T10:07:14;100047.97;;;26.42;22.99
62712;BME280;48772;55.586;37.730;2022-08-21T10:09:41;100032.47;;;26.23;23.22
62712;BME280;48772;55.586;37.730;2022-08-21T10:12:19;100029.13;;;26.15;22.42
62712;BME280;48772;55.586;37.730;2022-08-21T10:15:12;100039.44;;;26.19;22.64
62712;BME280;48772;55.586;37.730;2022-08-21T10:17:46;100024.06;;;26.18;22.86
62712;BME280;48772;55.586;37.730;2022-08-21T10:20:22;100033.31;;;26.17;22.81
62712;BME280;48772;55.586;37.730;2022-08-21T10:23:12;100041.50;;;26.30;22.95
62712;BME280;48772;55.586;37.730;2022-08-21T10:25:52;100032.03;;;26.20;22.45
62712;BME280;48772;55.586;37.730;2022-08-21T10:28:30;100006.81;;;26.11;22.18
62712;BME280;48772;55.586;37.730;2022-08-21T10:31:16;100011.06;;;26.01;22.55
62712;BME280;48772;55.586;37.730;2022-08-21T10:36:46;100023.63;;;26.21;23.11
62712;BME280;48772;55.586;37.730;2022-08-21T10:39:39;100017.75;;;26.24;23.30
62712;BME280;48772;55.586;37.730;2022-08-21T10:42:21;100009.56;;;26.11;22.83
62712;BME280;48772;55.586;37.730;2022-08-21T10:47:34;100009.78;;;26.16;22.74
62712;BME280;48772;55.586;37.730;2022-08-21T10:50:08;100002.84;;;26.07;22.20
62712;BME280;48772;55.586;37.730;2022-08-21T10:55:33;100000.72;;;26.16;22.21
62712;BME280;48772;55.586;37.730;2022-08-21T10:58:05;99992.50;;;26.22;22.09
62712;BME280;48772;55.586;37.730;2022-08-21T11:00:42;99990.19;;;26.26;22.24
62712;BME280;48772;55.586;37.730;2022-08-21T11:03:11;99989.75;;;26.22;22.22
62712;BME280;48772;55.586;37.730;2022-08-21T11:08:17;99976.22;;;26.40;22.47
62712;BME280;48772;55.586;37.730;2022-08-21T11:11:03;99997.44;;;26.58;22.43
62712;BME280;48772;55.586;37.730;2022-08-21T11:13:42;100005.84;;;26.50;22.26
62712;BME280;48772;55.586;37.730;2022-08-21T11:16:29;99998.09;;;26.47;22.15
62712;BME280;48772;55.586;37.730;2022-08-21T11:19:04;100001.09;;;26.32;22.73
62712;BME280;48772;55.586;37.730;2022-08-21T11:21:46;99991.59;;;26.41;22.92
62712;BME280;48772;55.586;37.730;2022-08-21T11:27:09;99997.97;;;26.22;23.04
62712;BME280;48772;55.586;37.730;2022-08-21T11:29:41;99987.69;;;26.18;23.29
62712;BME280;48772;55.586;37.730;2022-08-21T11:35:08;100004.06;;;26.24;23.59
62712;BME280;48772;55.586;37.730;2022-08-21T11:41:02;99996.31;;;26.15;23.10
62712;BME280;48772;55.586;37.730;2022-08-21T11:43:47;99969.41;;;25.92;22.31
62712;BME280;48772;55.586;37.730;2022-08-21T11:54:21;99960.19;;;25.80;22.90
62712;BME280;48772;55.586;37.730;2022-08-21T11:57:12;99976.16;;;25.83;22.44
62712;BME280;48772;55.586;37.730;2022-08-21T11:59:49;99970.88;;;25.88;21.84
62712;BME280;48772;55.586;37.730;2022-08-21T12:02:21;99995.28;;;25.90;21.78
62712;BME280;48772;55.586;37.730;2022-08-21T12:05:10;99989.16;;;25.88;21.58
62712;BME280;48772;55.586;37.730;2022-08-21T12:08:45;99971.53;;;25.84;21.10
62712;BME280;48772;55.586;37.730;2022-08-21T12:11:09;99985.41;;;25.82;21.31
62712;BME280;48772;55.586;37.730;2022-08-21T12:13:51;99979.94;;;25.95;21.44
62712;BME280;48772;55.586;37.730;2022-08-21T12:21:34;99967.72;;;26.04;20.88
62712;BME280;48772;55.586;37.730;2022-08-21T12:26:51;99976.03;;;26.35;21.02
62712;BME280;48772;55.586;37.730;2022-08-21T12:34:35;99970.75;;;26.40;20.90
62712;BME280;48772;55.586;37.730;2022-08-21T12:37:15;99973.50;;;26.40;21.13
62712;BME280;48772;55.586;37.730;2022-08-21T12:39:45;99972.84;;;26.45;21.40
62712;BME280;48772;55.586;37.730;2022-08-21T12:42:19;99985.78;;;26.75;21.24
62712;BME280;48772;55.586;37.730;2022-08-21T12:45:31;99980.09;;;26.70;21.08
62712;BME280;48772;55.586;37.730;2022-08-21T12:50:49;99976.03;;;26.86;21.09
62712;BME280;48772;55.586;37.730;2022-08-21T12:53:28;99976.22;;;26.91;21.19
62712;BME280;48772;55.586;37.730;2022-08-21T12:55:54;99977.06;;;26.91;21.75
62712;BME280;48772;55.586;37.730;2022-08-21T12:58:25;99963.63;;;26.83;21.63
62712;BME280;48772;55.586;37.730;2022-08-21T13:01:31;99958.59;;;26.80;21.49
62712;BME280;48772;55.586;37.730;2022-08-21T13:04:11;99954.44;;;26.71;21.55
62712;BME280;48772;55.586;37.730;2022-08-21T13:06:44;99957.34;;;26.76;21.88
62712;BME280;48772;55.586;37.730;2022-08-21T13:09:15;99958.38;;;26.82;21.99
62712;BME280;48772;55.586;37.730;2022-08-21T13:11:43;99956.66;;;26.87;22.12
62712;BME280;48772;55.586;37.730;2022-08-21T13:14:39;99953.53;;;26.77;22.09
62712;BME280;48772;55.586;37.730;2022-08-21T13:17:05;99944.69;;;26.82;21.93
62712;BME280;48772;55.586;37.730;2022-08-21T13:19:33;99957.44;;;26.63;22.18
62712;BME280;48772;55.586;37.730;2022-08-21T13:22:00;99953.47;;;26.90;22.29
62712;BME280;48772;55.586;37.730;2022-08-21T13:24:32;99952.25;;;26.86;22.26
62712;BME280;48772;55.586;37.730;2022-08-21T13:26:59;99939.38;;;26.87;22.16
62712;BME280;48772;55.586;37.730;2022-08-21T13:29:31;99958.41;;;26.75;21.80
62712;BME280;48772;55.586;37.730;2022-08-21T13:32:02;99951.59;;;26.40;22.17
62712;BME280;48772;55.586;37.730;2022-08-21T13:34:31;99958.97;;;26.46;22.54
62712;BME280;48772;55.586;37.730;2022-08-21T13:37:00;99957.50;;;26.37;22.31
62712;BME280;48772;55.586;37.730;2022-08-21T13:39:27;99957.97;;;26.34;22.44
62712;BME280;48772;55.586;37.730;2022-08-21T13:41:56;99959.47;;;26.30;22.31
62712;BME280;48772;55.586;37.730;2022-08-21T13:44:32;99968.69;;;26.29;22.31
62712;BME280;48772;55.586;37.730;2022-08-21T13:47:02;99946.66;;;26.18;22.52
62712;BME280;48772;55.586;37.730;2022-08-21T13:49:36;99939.09;;;26.13;22.52
62712;BME280;48772;55.586;37.730;2022-08-21T13:52:04;99939.50;;;26.17;22.63
62712;BME280;48772;55.586;37.730;2022-08-21T13:54:37;99938.84;;;26.21;22.38
62712;BME280;48772;55.586;37.730;2022-08-21T13:57:04;99942.91;;;26.12;22.52
62712;BME280;48772;55.586;37.730;2022-08-21T13:59:43;99934.31;;;26.02;22.41